Time;durP1;ratioP1;P1;durP2;ratioP2;P2;SDS_P1;SDS_P2;PMS_P1;PMS_P2;Temp;Humidity;BMP_temperature;BMP_pressure;BME280_temperature;BME280_humidity;BME280_pressure;Samples;Min_cycle;Max_cycle;Signal;HPM_P1;HPM_P2
2022/03/16 00:01:38;;;;;;;6.88;4.32;;;;;;;21.91;36.10;102572.53;4770089;28;21146;-74
2022/03/16 00:04:03;;;;;;;6.95;4.53;;;;;;;21.75;36.09;102545.84;4766537;28;21153;-73
2022/03/16 00:06:29;;;;;;;6.10;4.70;;;;;;;21.86;35.93;102558.88;4771916;28;20463;-73
2022/03/16 00:08:55;;;;;;;5.30;4.13;;;;;;;21.85;35.96;102571.28;4764591;28;20710;-74
2022/03/16 00:11:20;;;;;;;7.03;4.80;;;;;;;21.82;35.88;102573.41;4769746;28;20979;-73
2022/03/16 00:13:46;;;;;;;6.50;4.65;;;;;;;21.79;35.92;102571.91;4768984;28;20717;-73
2022/03/16 00:16:11;;;;;;;6.30;4.38;;;;;;;21.63;35.99;102551.38;4772854;28;20736;-73
2022/03/16 00:18:37;;;;;;;5.30;4.53;;;;;;;21.77;36.15;102581.84;4768506;28;20937;-73
2022/03/16 00:21:03;;;;;;;5.15;4.22;;;;;;;21.57;36.16;102562.56;4775095;28;21237;-73
2022/03/16 00:23:29;;;;;;;6.25;4.60;;;;;;;21.58;35.91;102563.41;4750696;28;20427;-75
2022/03/16 00:25:54;;;;;;;5.88;4.25;;;;;;;21.47;36.18;102542.41;4773813;28;20460;-73
2022/03/16 00:28:20;;;;;;;5.57;4.38;;;;;;;21.67;35.98;102581.06;4773274;28;20751;-73
2022/03/16 00:30:45;;;;;;;7.70;4.22;;;;;;;21.62;35.94;102573.56;4752911;28;20552;-73
2022/03/16 00:33:11;;;;;;;7.07;4.72;;;;;;;21.62;35.79;102575.38;4769455;28;21254;-73
2022/03/16 00:35:37;;;;;;;6.63;4.75;;;;;;;21.47;35.74;102553.84;4764393;28;21253;-73
2022/03/16 00:38:04;;;;;;;5.00;4.47;;;;;;;21.57;36.13;102582.94;4767744;28;21096;-73
2022/03/16 00:40:32;;;;;;;5.43;4.70;;;;;;;21.50;35.73;102572.09;4766545;28;20672;-72
2022/03/16 00:42:57;;;;;;;5.60;4.45;;;;;;;21.39;36.10;102556.41;4773092;28;20794;-73
2022/03/16 00:45:23;;;;;;;5.40;4.70;;;;;;;21.53;36.05;102582.38;4766576;28;21153;-73
2022/03/16 00:47:51;;;;;;;5.65;4.60;;;;;;;21.45;35.97;102563.75;4755769;28;20673;-72
2022/03/16 00:50:17;;;;;;;5.07;4.45;;;;;;;21.50;35.98;102565.94;4767658;28;20800;-73
2022/03/16 00:52:43;;;;;;;5.68;4.30;;;;;;;21.50;35.70;102563.31;4772860;28;20720;-73
2022/03/16 00:55:09;;;;;;;5.50;4.15;;;;;;;21.45;36.11;102565.56;4768052;28;20041;-73
2022/03/16 00:57:35;;;;;;;5.63;4.18;;;;;;;21.45;36.07;102561.09;4771072;28;20805;-73
2022/03/16 01:00:00;;;;;;;5.53;4.78;;;;;;;21.39;35.92;102548.47;4765435;28;20465;-73
2022/03/16 01:02:26;;;;;;;6.03;4.60;;;;;;;21.42;35.86;102562.25;4772056;28;20045;-73
2022/03/16 01:04:52;;;;;;;6.55;4.50;;;;;;;21.30;35.92;102536.09;4769515;28;20617;-72
2022/03/16 01:07:17;;;;;;;5.88;4.43;;;;;;;21.35;35.88;102553.19;4773371;28;20629;-73
2022/03/16 01:09:43;;;;;;;5.93;4.63;;;;;;;21.38;36.03;102560.03;4765758;28;21226;-73
2022/03/16 01:12:09;;;;;;;5.57;4.38;;;;;;;21.37;36.06;102571.63;4773265;28;21706;-75
2022/03/16 01:14:36;;;;;;;5.95;4.40;;;;;;;21.35;36.15;102571.75;4752555;28;20908;-73
2022/03/16 01:17:01;;;;;;;5.30;3.95;;;;;;;21.33;35.84;102570.22;4764928;28;20899;-73
2022/03/16 01:19:29;;;;;;;4.95;4.45;;;;;;;21.32;35.96;102572.03;4752554;28;20676;-73
2022/03/16 01:21:55;;;;;;;5.22;4.50;;;;;;;21.22;35.71;102554.50;4765771;28;21172;-73
2022/03/16 01:24:21;;;;;;;5.80;4.30;;;;;;;21.31;35.95;102572.19;4772648;28;20723;-72
2022/03/16 01:26:46;;;;;;;6.03;4.45;;;;;;;21.28;36.14;102572.50;4769687;28;20661;-73
2022/03/16 01:29:12;;;;;;;5.38;4.30;;;;;;;21.12;36.12;102551.91;4750983;28;20927;-73
2022/03/16 01:31:38;;;;;;;4.88;4.28;;;;;;;21.21;36.09;102571.41;4770275;28;20799;-73
2022/03/16 01:34:04;;;;;;;4.80;4.07;;;;;;;21.24;35.91;102573.75;4769638;28;20602;-73
2022/03/16 01:36:29;;;;;;;5.65;4.03;;;;;;;21.21;35.85;102574.03;4769459;28;20822;-73
2022/03/16 01:38:55;;;;;;;5.20;4.55;;;;;;;21.22;35.81;102586.31;4782683;28;21208;-73
2022/03/16 01:41:22;;;;;;;4.70;4.20;;;;;;;21.16;35.83;102577.09;4734365;28;21063;-73
2022/03/16 01:43:53;;;;;;;4.75;3.95;;;;;;;21.01;36.21;102558.25;4768455;28;21012;-73
2022/03/16 01:46:20;;;;;;;7.15;4.40;;;;;;;21.13;36.04;102596.78;4770227;28;20751;-72
2022/03/16 01:48:46;;;;;;;6.22;4.53;;;;;;;21.09;36.14;102586.63;4770323;28;20918;-73
2022/03/16 01:51:13;;;;;;;5.63;4.43;;;;;;;20.99;36.07;102580.53;4767451;28;20079;-73
2022/03/16 01:53:41;;;;;;;4.90;4.03;;;;;;;21.05;36.25;102599.34;4768295;28;21480;-73
2022/03/16 01:56:09;;;;;;;4.82;4.07;;;;;;;21.01;36.18;102597.13;4749144;28;20459;-73
2022/03/16 01:58:34;;;;;;;5.85;4.10;;;;;;;20.97;36.07;102601.03;4767363;28;20834;-73
2022/03/16 02:01:01;;;;;;;5.05;4.05;;;;;;;20.97;36.17;102611.63;4768546;28;20904;-73
2022/03/16 02:03:27;;;;;;;4.85;3.90;;;;;;;20.92;36.16;102603.28;4771942;28;20953;-73
2022/03/16 02:05:54;;;;;;;4.90;4.00;;;;;;;20.76;36.21;102583.53;4767946;28;20064;-72
2022/03/16 02:08:20;;;;;;;5.03;3.95;;;;;;;20.90;36.10;102606.06;4770487;28;20755;-73
2022/03/16 02:10:46;;;;;;;5.70;4.18;;;;;;;20.86;36.13;102598.56;4769743;28;20762;-73
2022/03/16 02:13:11;;;;;;;5.93;4.20;;;;;;;20.77;35.89;102593.13;4770743;28;21414;-73
2022/03/16 02:15:38;;;;;;;5.35;4.00;;;;;;;20.79;36.16;102595.63;4771719;28;20336;-72
2022/03/16 02:18:04;;;;;;;4.32;3.90;;;;;;;20.86;36.08;102609.16;4768352;28;20612;-73
2022/03/16 02:20:30;;;;;;;6.25;4.47;;;;;;;20.75;36.27;102588.97;4770026;28;21226;-74
2022/03/16 02:23:00;;;;;;;5.40;4.28;;;;;;;20.68;36.30;102583.44;4768683;28;20660;-73
2022/03/16 02:25:28;;;;;;;5.13;4.03;;;;;;;20.67;36.46;102584.41;4769527;28;20704;-72
2022/03/16 02:27:54;;;;;;;5.78;4.10;;;;;;;20.67;36.13;102588.88;4767531;28;21473;-73
2022/03/16 02:30:21;;;;;;;6.57;4.45;;;;;;;20.79;36.29;102612.38;4772300;28;20772;-72
2022/03/16 02:32:47;;;;;;;6.22;3.92;;;;;;;20.65;36.31;102602.25;4770994;28;20517;-73
2022/03/16 02:35:14;;;;;;;7.43;4.90;;;;;;;20.74;36.02;102611.13;4768857;28;20806;-73
2022/03/16 02:37:40;;;;;;;4.57;3.75;;;;;;;20.71;36.01;102614.91;4766824;28;21565;-73
2022/03/16 02:40:08;;;;;;;4.43;3.63;;;;;;;20.76;36.25;102620.59;4768922;28;20865;-73
2022/03/16 02:42:34;;;;;;;4.93;4.10;;;;;;;20.59;36.04;102586.91;4769597;28;20485;-74
2022/03/16 02:45:00;;;;;;;5.07;3.90;;;;;;;20.73;36.27;102620.06;4771257;28;20556;-73
2022/03/16 02:47:27;;;;;;;6.45;4.25;;;;;;;20.72;36.18;102608.63;4767978;28;21036;-73
2022/03/16 02:49:54;;;;;;;5.22;4.20;;;;;;;20.71;36.05;102612.25;4770319;28;21323;-73
2022/03/16 02:52:21;;;;;;;5.15;3.90;;;;;;;20.74;36.20;102613.78;4768386;28;20838;-73
2022/03/16 02:54:47;;;;;;;5.38;4.18;;;;;;;20.69;36.15;102613.38;4773694;28;20448;-73
2022/03/16 02:57:15;;;;;;;5.45;4.05;;;;;;;20.73;36.10;102622.69;4765440;28;21090;-73
2022/03/16 02:59:43;;;;;;;5.55;4.45;;;;;;;20.60;36.13;102601.81;4770241;28;20916;-73
2022/03/16 03:02:09;;;;;;;6.13;4.38;;;;;;;20.68;36.17;102614.34;4769682;28;20664;-73
2022/03/16 03:04:34;;;;;;;6.03;4.18;;;;;;;20.63;36.31;102609.47;4774277;28;21046;-74
2022/03/16 03:07:00;;;;;;;5.45;4.28;;;;;;;20.64;36.24;102613.78;4771459;28;20849;-73
2022/03/16 03:09:26;;;;;;;6.78;4.15;;;;;;;20.68;36.08;102620.47;4774033;28;20559;-74
2022/03/16 03:11:52;;;;;;;5.68;4.15;;;;;;;20.67;35.86;102628.56;4772897;28;21808;-73
2022/03/16 03:14:18;;;;;;;4.47;4.07;;;;;;;20.66;36.15;102634.84;4772260;28;21425;-73
2022/03/16 03:16:44;;;;;;;5.43;3.80;;;;;;;20.63;36.06;102624.50;4773931;28;20693;-74
2022/03/16 03:19:09;;;;;;;5.93;4.20;;;;;;;20.62;36.29;102623.69;4771783;28;20785;-74
2022/03/16 03:21:35;;;;;;;5.07;4.47;;;;;;;20.64;36.15;102626.19;4772480;28;20847;-73
2022/03/16 03:24:00;;;;;;;4.40;3.83;;;;;;;20.63;36.06;102630.63;4770714;28;20999;-74
2022/03/16 03:26:27;;;;;;;5.90;4.22;;;;;;;20.61;35.99;102623.81;4774874;28;20695;-74
2022/03/16 03:28:52;;;;;;;5.32;4.00;;;;;;;20.54;35.99;102620.09;4747180;28;21079;-74
2022/03/16 03:31:19;;;;;;;4.82;3.85;;;;;;;20.44;36.10;102609.50;4770354;28;21037;-73
2022/03/16 03:33:45;;;;;;;4.55;3.75;;;;;;;20.56;36.15;102636.66;4772357;28;21640;-73
2022/03/16 03:36:10;;;;;;;4.60;4.07;;;;;;;20.57;36.05;102630.38;4774101;28;20534;-73
2022/03/16 03:38:36;;;;;;;4.65;4.00;;;;;;;20.58;36.11;102637.34;4773702;28;20730;-74
2022/03/16 03:41:03;;;;;;;5.03;4.13;;;;;;;20.54;36.18;102630.66;4774856;28;20069;-74
2022/03/16 03:43:29;;;;;;;5.97;3.97;;;;;;;20.57;35.97;102627.72;4771209;28;20711;-73
2022/03/16 03:45:55;;;;;;;4.80;3.67;;;;;;;20.52;35.95;102622.88;4773273;28;20786;-73
2022/03/16 03:48:20;;;;;;;4.25;3.50;;;;;;;20.57;36.04;102630.38;4771026;28;20696;-73
2022/03/16 03:50:46;;;;;;;5.97;4.10;;;;;;;20.55;36.01;102625.22;4772669;28;21120;-74
2022/03/16 03:53:11;;;;;;;4.50;3.70;;;;;;;20.41;36.10;102604.47;4771063;28;21089;-73
2022/03/16 03:55:37;;;;;;;4.70;3.75;;;;;;;20.51;35.89;102621.19;4773268;28;20810;-74
2022/03/16 03:58:02;;;;;;;4.72;3.72;;;;;;;20.50;36.02;102608.94;4771338;28;21205;-75
2022/03/16 04:00:28;;;;;;;4.47;3.55;;;;;;;20.51;36.02;102615.91;4773310;28;20957;-74
2022/03/16 04:02:54;;;;;;;5.05;3.70;;;;;;;20.35;36.08;102592.63;4756001;28;21215;-73
2022/03/16 04:05:20;;;;;;;6.70;4.28;;;;;;;20.29;36.12;102579.09;4775249;28;20429;-73
2022/03/16 04:07:48;;;;;;;4.40;3.70;;;;;;;20.34;36.17;102577.72;4772885;28;20902;-72
2022/03/16 04:10:14;;;;;;;4.55;3.60;;;;;;;20.46;36.16;102603.06;4771956;28;21024;-74
2022/03/16 04:12:39;;;;;;;4.65;3.75;;;;;;;20.42;36.08;102603.50;4772896;28;20881;-73
2022/03/16 04:15:06;;;;;;;4.35;3.80;;;;;;;20.41;36.00;102613.25;4770912;28;21394;-73
2022/03/16 04:17:32;;;;;;;4.80;3.70;;;;;;;20.39;35.99;102612.53;4773615;28;21090;-74
2022/03/16 04:19:57;;;;;;;5.63;4.10;;;;;;;20.36;36.34;102610.16;4769852;28;20796;-74
2022/03/16 04:22:27;;;;;;;3.83;3.17;;;;;;;20.29;36.21;102610.84;4768809;28;21698;-73
2022/03/16 04:24:54;;;;;;;3.88;3.10;;;;;;;20.30;36.30;102616.03;4772859;28;20973;-73
2022/03/16 04:27:20;;;;;;;4.22;3.72;;;;;;;20.27;36.25;102616.28;4771410;28;21054;-73
2022/03/16 04:29:46;;;;;;;3.72;3.05;;;;;;;20.22;36.25;102610.59;4770566;28;21256;-73
2022/03/16 04:32:12;;;;;;;3.95;3.40;;;;;;;20.16;36.34;102601.41;4768887;28;21403;-73
2022/03/16 04:34:38;;;;;;;4.80;3.80;;;;;;;20.18;36.34;102603.91;4772727;28;20745;-73
2022/03/16 04:37:04;;;;;;;4.10;3.70;;;;;;;20.20;36.28;102617.84;4772090;28;20696;-73
2022/03/16 04:39:30;;;;;;;4.28;3.50;;;;;;;20.19;36.35;102614.34;4771417;28;20239;-73
2022/03/16 04:41:56;;;;;;;3.53;3.15;;;;;;;20.12;36.30;102605.31;4785924;28;21843;-73
2022/03/16 04:44:22;;;;;;;5.07;3.63;;;;;;;20.08;36.37;102600.41;4770393;28;21023;-73
2022/03/16 04:46:47;;;;;;;4.05;3.63;;;;;;;20.08;36.22;102588.03;4772163;28;21198;-73
2022/03/16 04:49:13;;;;;;;4.68;3.63;;;;;;;20.03;36.43;102584.13;4771453;28;20982;-73
2022/03/16 04:51:40;;;;;;;4.20;3.60;;;;;;;20.15;36.35;102601.56;4769503;28;20029;-72
2022/03/16 04:54:09;;;;;;;5.32;3.67;;;;;;;20.15;36.31;102605.03;4767604;28;21520;-73
2022/03/16 04:56:37;;;;;;;4.97;3.63;;;;;;;20.16;36.26;102613.81;4773463;28;20570;-73
2022/03/16 04:59:04;;;;;;;4.57;3.45;;;;;;;20.08;36.29;102609.19;4765453;28;20963;-73
2022/03/16 05:01:30;;;;;;;3.63;3.20;;;;;;;20.12;36.43;102612.41;4772808;28;20589;-73
2022/03/16 05:03:56;;;;;;;4.40;3.55;;;;;;;20.12;36.29;102615.91;4770758;28;20767;-72
2022/03/16 05:06:21;;;;;;;4.25;3.55;;;;;;;20.11;36.23;102616.88;4771685;28;20931;-72
2022/03/16 05:08:47;;;;;;;4.03;3.63;;;;;;;20.10;36.29;102614.34;4766529;28;21220;-73
2022/03/16 05:11:14;;;;;;;4.68;3.58;;;;;;;19.96;36.21;102598.91;4771366;28;21026;-73
2022/03/16 05:13:41;;;;;;;4.18;3.35;;;;;;;20.10;36.33;102620.47;4766298;28;20723;-73
2022/03/16 05:16:07;;;;;;;5.60;3.60;;;;;;;20.08;36.31;102618.94;4770747;28;20705;-73
2022/03/16 05:18:33;;;;;;;4.45;3.30;;;;;;;19.92;36.38;102595.66;4765674;28;21163;-73
2022/03/16 05:21:00;;;;;;;3.40;3.10;;;;;;;20.06;36.39;102619.06;4772820;28;20728;-73
2022/03/16 05:23:25;;;;;;;5.10;3.55;;;;;;;20.03;36.48;102622.00;4770240;28;21172;-72
2022/03/16 05:25:51;;;;;;;3.85;3.25;;;;;;;19.91;36.47;102601.94;4772065;28;20791;-73
2022/03/16 05:28:17;;;;;;;3.83;3.15;;;;;;;19.92;36.54;102617.66;4772676;28;20966;-73
2022/03/16 05:30:44;;;;;;;4.57;3.53;;;;;;;19.83;36.53;102594.69;4766472;28;20497;-74
2022/03/16 05:33:09;;;;;;;4.68;3.42;;;;;;;19.97;36.47;102617.28;4770126;28;20719;-73
2022/03/16 05:35:35;;;;;;;4.57;3.45;;;;;;;19.91;36.64;102617.78;4767773;28;21089;-73
2022/03/16 05:38:03;;;;;;;3.80;3.10;;;;;;;19.91;36.67;102615.16;4771763;28;20677;-73
2022/03/16 05:40:29;;;;;;;4.15;3.33;;;;;;;19.86;36.44;102606.81;4768750;28;20510;-73
2022/03/16 05:42:55;;;;;;;3.70;3.17;;;;;;;19.87;36.51;102617.25;4774001;28;20046;-73
2022/03/16 05:45:21;;;;;;;3.85;3.08;;;;;;;19.75;36.75;102593.69;4770111;28;20897;-72
2022/03/16 05:47:46;;;;;;;4.10;3.10;;;;;;;19.72;36.71;102591.31;4771360;28;21456;-72
2022/03/16 05:50:12;;;;;;;4.47;3.50;;;;;;;19.71;36.69;102595.78;4763718;28;20038;-72
2022/03/16 05:52:38;;;;;;;4.00;3.47;;;;;;;19.90;36.72;102618.78;4766692;28;20993;-73
2022/03/16 05:55:07;;;;;;;4.50;3.60;;;;;;;20.02;36.51;102625.63;4767475;28;20310;-72
2022/03/16 05:57:32;;;;;;;4.30;3.60;;;;;;;20.39;36.20;102623.13;4772791;28;20567;-72
2022/03/16 05:59:58;;;;;;;4.00;3.15;;;;;;;20.93;35.56;102620.84;4765476;28;21307;-72
2022/03/16 06:02:23;;;;;;;3.78;3.33;;;;;;;21.30;34.71;102626.19;4766415;28;20041;-73
2022/03/16 06:04:49;;;;;;;3.38;2.83;;;;;;;21.45;34.39;102613.28;4764498;28;20034;-72
2022/03/16 06:07:15;;;;;;;4.43;3.30;;;;;;;21.56;34.73;102621.03;4767800;28;21471;-71
2022/03/16 06:09:41;;;;;;;5.25;3.65;;;;;;;21.65;34.49;102620.13;4761189;28;20162;-72
2022/03/16 06:12:07;;;;;;;3.78;3.20;;;;;;;21.71;34.30;102623.03;4762459;28;20303;-72
2022/03/16 06:14:33;;;;;;;4.03;3.22;;;;;;;21.77;34.06;102631.38;4765332;28;20651;-72
2022/03/16 06:16:58;;;;;;;5.03;3.40;;;;;;;21.82;34.42;102631.75;4767904;28;21081;-73
2022/03/16 06:19:24;;;;;;;3.53;3.10;;;;;;;21.95;34.05;102621.63;4766140;28;20051;-72
2022/03/16 06:21:50;;;;;;;4.63;3.25;;;;;;;22.01;33.99;102600.63;4795183;28;20668;-73
2022/03/16 06:24:16;;;;;;;4.00;3.30;;;;;;;22.33;33.27;102623.19;4854885;28;21866;-73
2022/03/16 06:26:42;;;;;;;4.63;3.17;;;;;;;22.60;33.14;102619.56;4861107;28;20053;-73
2022/03/16 06:29:09;;;;;;;4.10;3.15;;;;;;;22.83;32.87;102630.56;4858321;28;20126;-73
2022/03/16 06:31:35;;;;;;;3.78;3.10;;;;;;;22.95;32.67;102623.13;4855274;28;20927;-71
2022/03/16 06:34:01;;;;;;;3.97;3.08;;;;;;;22.86;32.57;102625.75;4857134;28;20923;-73
2022/03/16 06:36:26;;;;;;;3.33;2.80;;;;;;;22.64;32.99;102633.38;4851692;28;20040;-72
2022/03/16 06:38:55;;;;;;;3.60;2.83;;;;;;;22.43;33.45;102639.00;4858725;28;20064;-72
2022/03/16 06:41:22;;;;;;;3.97;3.13;;;;;;;22.33;33.75;102649.72;4856406;28;20060;-72
2022/03/16 06:43:47;;;;;;;3.92;2.97;;;;;;;22.23;34.13;102667.53;4860307;28;20067;-72
2022/03/16 06:46:13;;;;;;;3.28;2.80;;;;;;;22.05;34.39;102667.50;4860760;28;21734;-72
2022/03/16 06:48:38;;;;;;;4.68;3.10;;;;;;;21.93;34.56;102664.22;4860434;28;20904;-72
2022/03/16 06:51:05;;;;;;;3.33;3.00;;;;;;;21.79;34.69;102664.72;4860238;28;20507;-73
2022/03/16 06:53:31;;;;;;;3.42;2.80;;;;;;;21.75;34.70;102673.13;4862833;28;20084;-73
2022/03/16 06:55:56;;;;;;;4.13;2.90;;;;;;;21.55;34.69;102659.13;4863358;28;21542;-73
2022/03/16 06:58:22;;;;;;;3.22;2.92;;;;;;;21.81;34.50;102673.34;4862087;28;20196;-72
2022/03/16 07:00:48;;;;;;;4.28;3.55;;;;;;;21.96;34.46;102694.91;4854694;28;21614;-72
2022/03/16 07:03:13;;;;;;;3.60;2.75;;;;;;;21.83;34.47;102687.31;4866397;28;20547;-72
2022/03/16 07:05:41;;;;;;;3.72;2.70;;;;;;;21.79;34.71;102679.81;4860028;28;20033;-73
2022/03/16 07:08:12;;;;;;;3.78;2.75;;;;;;;21.73;34.96;102689.19;4860412;28;20052;-73
2022/03/16 07:10:40;;;;;;;3.55;2.90;;;;;;;21.61;35.09;102685.06;4858122;28;22182;-73
2022/03/16 07:13:07;;;;;;;4.25;2.90;;;;;;;21.59;35.18;102695.81;4827211;28;20041;-63
2022/03/16 07:15:34;;;;;;;4.68;3.47;;;;;;;21.54;35.01;102697.19;4863815;28;21399;-63
2022/03/16 07:18:03;;;;;;;3.67;3.00;;;;;;;21.60;34.98;102702.78;4860060;28;20045;-64
2022/03/16 07:20:30;;;;;;;4.25;3.13;;;;;;;21.60;34.96;102696.63;4861287;28;21601;-63
2022/03/16 07:23:13;;;;;;;4.25;2.95;;;;;;;21.55;35.04;102693.59;4857878;28;20080;-65
2022/03/16 07:25:40;;;;;;;5.10;3.35;;;;;;;21.54;35.04;102681.28;4857127;28;20073;-64
2022/03/16 07:28:07;;;;;;;3.78;3.10;;;;;;;21.53;35.11;102683.13;4814982;28;22134;-67
2022/03/16 07:30:34;;;;;;;3.35;2.80;;;;;;;21.83;34.59;102681.16;4859033;28;20155;-64
2022/03/16 07:33:00;;;;;;;3.92;2.90;;;;;;;22.05;34.08;102687.91;4836491;28;20718;-66
2022/03/16 07:35:27;;;;;;;4.10;3.30;;;;;;;22.23;33.94;102699.38;4828165;28;21829;-64
2022/03/16 07:37:56;;;;;;;3.75;3.13;;;;;;;22.01;34.16;102680.22;4752098;28;20045;-64
2022/03/16 07:40:24;;;;;;;3.45;2.80;;;;;;;22.10;34.17;102698.91;4771457;28;20184;-63
2022/03/16 07:42:51;;;;;;;4.18;2.88;;;;;;;22.04;34.43;102705.59;4850415;28;20045;-62
2022/03/16 07:45:18;;;;;;;3.90;2.97;;;;;;;21.96;34.40;102698.41;4826078;28;20044;-64
2022/03/16 07:47:46;;;;;;;4.63;3.30;;;;;;;21.89;34.66;102707.91;4861364;28;20123;-63
2022/03/16 07:50:11;;;;;;;4.18;3.17;;;;;;;21.83;34.83;102699.72;4827043;28;20056;-63
2022/03/16 07:52:37;;;;;;;3.95;3.05;;;;;;;21.66;34.56;102682.78;4860367;28;20131;-64
2022/03/16 07:55:04;;;;;;;4.45;3.40;;;;;;;21.71;34.81;102689.31;4828524;28;20868;-64
2022/03/16 07:57:30;;;;;;;4.45;3.42;;;;;;;21.67;34.88;102687.09;4847381;28;20037;-65
2022/03/16 07:59:56;;;;;;;4.30;3.35;;;;;;;21.62;35.06;102687.56;4832450;28;20129;-64
2022/03/16 08:02:22;;;;;;;4.75;3.30;;;;;;;21.61;34.92;102696.50;4841872;28;20541;-64
2022/03/16 08:04:47;;;;;;;4.55;3.70;;;;;;;21.60;34.79;102700.13;4850510;28;21571;-64
2022/03/16 08:07:13;;;;;;;4.43;3.40;;;;;;;21.62;34.86;102698.16;4828370;28;20837;-64
2022/03/16 08:09:39;;;;;;;4.38;3.10;;;;;;;21.67;34.70;102698.53;4847888;28;20451;-64
2022/03/16 08:12:05;;;;;;;4.95;3.25;;;;;;;21.75;34.63;102694.34;4826797;28;21012;-64
2022/03/16 08:14:31;;;;;;;4.22;3.42;;;;;;;21.74;34.57;102706.75;4848227;28;20526;-64
2022/03/16 08:16:56;;;;;;;4.53;3.55;;;;;;;21.61;34.63;102680.59;4821282;28;20178;-64
2022/03/16 08:19:22;;;;;;;4.10;3.30;;;;;;;21.68;34.94;102704.69;4844122;28;20645;-64
2022/03/16 08:21:48;;;;;;;5.20;3.70;;;;;;;21.67;34.95;102706.50;4848727;28;21020;-64
2022/03/16 08:24:14;;;;;;;4.40;3.35;;;;;;;21.63;34.74;102707.78;4814341;28;20114;-64
2022/03/16 08:26:40;;;;;;;4.80;3.35;;;;;;;21.58;34.85;102696.78;4848151;28;20754;-64
2022/03/16 08:29:06;;;;;;;6.10;4.00;;;;;;;21.67;34.92;102703.84;4830564;28;20772;-64
2022/03/16 08:31:32;;;;;;;4.43;3.50;;;;;;;21.70;34.82;102690.28;4812532;28;20041;-64
2022/03/16 08:33:57;;;;;;;5.00;3.42;;;;;;;21.80;34.76;102692.06;4754027;28;21110;-63
2022/03/16 08:36:23;;;;;;;4.22;3.33;;;;;;;21.86;34.40;102681.69;4804395;28;20144;-63
2022/03/16 08:38:48;;;;;;;3.95;3.55;;;;;;;21.85;34.65;102682.69;4771879;28;20506;-64
2022/03/16 08:41:14;;;;;;;4.82;3.78;;;;;;;21.79;34.70;102669.19;4773631;28;20692;-66
2022/03/16 08:43:39;;;;;;;4.10;3.45;;;;;;;21.80;34.55;102677.00;4799588;28;20091;-66
2022/03/16 08:46:05;;;;;;;4.72;3.67;;;;;;;21.74;34.57;102674.13;4776021;28;20243;-64
2022/03/16 08:48:31;;;;;;;4.90;3.42;;;;;;;21.70;34.73;102677.03;4753883;28;21014;-64
2022/03/16 08:50:57;;;;;;;5.15;4.00;;;;;;;21.67;35.13;102676.50;4766576;28;20522;-64
2022/03/16 08:53:22;;;;;;;5.20;3.70;;;;;;;21.64;35.11;102677.63;4771347;28;20189;-64
2022/03/16 08:55:48;;;;;;;4.78;3.70;;;;;;;21.59;34.99;102664.00;4830480;28;20053;-65
2022/03/16 08:58:14;;;;;;;5.18;3.72;;;;;;;21.47;35.32;102651.06;4807915;28;20742;-63
2022/03/16 09:00:41;;;;;;;5.05;3.78;;;;;;;21.55;35.33;102667.09;4759022;28;20437;-64
2022/03/16 09:03:07;;;;;;;5.85;3.83;;;;;;;21.34;35.44;102644.28;4780251;28;20619;-64
2022/03/16 09:05:33;;;;;;;5.30;4.07;;;;;;;21.47;35.27;102659.84;4752855;28;22016;-64
2022/03/16 09:07:59;;;;;;;5.60;4.30;;;;;;;21.47;35.35;102659.84;4772962;28;20503;-67
2022/03/16 09:10:25;;;;;;;5.63;4.43;;;;;;;21.45;35.21;102637.13;4772469;28;20186;-64
2022/03/16 09:12:50;;;;;;;4.88;3.72;;;;;;;21.89;34.66;102665.47;4761245;28;21271;-64
2022/03/16 09:15:16;;;;;;;4.65;3.72;;;;;;;22.15;34.49;102659.50;4775155;28;20741;-64
2022/03/16 09:17:42;;;;;;;6.10;3.75;;;;;;;22.06;34.49;102650.59;4761264;28;20913;-64
2022/03/16 09:20:07;;;;;;;6.13;4.72;;;;;;;22.10;34.22;102656.47;4841214;28;20678;-64
2022/03/16 09:22:34;;;;;;;4.60;3.75;;;;;;;21.92;34.49;102632.53;4830561;28;21398;-64
2022/03/16 09:24:59;;;;;;;6.75;4.22;;;;;;;21.94;34.55;102649.13;4831256;28;20753;-64
2022/03/16 09:27:26;;;;;;;7.97;4.32;;;;;;;21.92;34.52;102644.00;4830014;28;21490;-64
2022/03/16 09:29:54;;;;;;;5.43;3.78;;;;;;;21.88;34.65;102634.63;4743853;28;21217;-64
2022/03/16 09:32:21;;;;;;;5.70;4.07;;;;;;;21.83;34.81;102623.66;4786301;28;20099;-64
2022/03/16 09:34:48;;;;;;;6.50;4.32;;;;;;;21.77;34.92;102632.22;4803945;28;20736;-66
2022/03/16 09:37:14;;;;;;;5.30;4.30;;;;;;;21.70;34.98;102621.34;4771492;28;20704;-63
2022/03/16 09:39:40;;;;;;;4.95;3.92;;;;;;;21.71;35.26;102627.50;4764654;28;20049;-63
2022/03/16 09:42:08;;;;;;;4.80;3.85;;;;;;;21.67;35.36;102610.22;4792901;28;21206;-66
2022/03/16 09:44:34;;;;;;;4.95;3.72;;;;;;;21.67;35.33;102611.03;4763159;28;20871;-64
2022/03/16 09:47:01;;;;;;;5.28;4.07;;;;;;;21.66;35.33;102606.72;4782996;28;20780;-64
2022/03/16 09:49:27;;;;;;;5.57;3.75;;;;;;;21.66;35.47;102603.25;4765908;28;20641;-65
2022/03/16 09:51:54;;;;;;;5.45;3.78;;;;;;;21.63;35.61;102606.19;4788420;28;20815;-64
2022/03/16 09:54:21;;;;;;;6.53;4.22;;;;;;;21.58;35.16;102592.56;4762233;28;20428;-64
2022/03/16 09:56:50;;;;;;;4.93;3.70;;;;;;;21.61;35.22;102614.31;4788176;28;20546;-63
2022/03/16 09:59:16;;;;;;;5.13;4.00;;;;;;;21.46;35.51;102589.28;4786854;28;20806;-66
2022/03/16 10:01:43;;;;;;;6.88;4.35;;;;;;;21.57;35.33;102612.09;4760174;28;20670;-66
2022/03/16 10:04:09;;;;;;;5.40;4.03;;;;;;;21.39;35.62;102577.59;4771272;28;21236;-66
2022/03/16 10:06:42;;;;;;;6.65;3.55;;;;;;;21.53;35.54;102605.41;4760630;28;21390;-63
2022/03/16 10:15:13;;;;;;;5.53;3.85;;;;;;;22.27;34.52;102605.22;4776397;28;20577;-65
2022/03/16 10:17:46;;;;;;;5.53;3.80;;;;;;;22.39;34.02;102608.44;4767805;28;20143;-65
2022/03/16 10:20:18;;;;;;;7.68;3.75;;;;;;;22.23;34.24;102588.75;4774910;28;20573;-66
2022/03/16 10:23:02;;;;;;;4.82;3.50;;;;;;;22.24;34.60;102597.53;4748177;28;20676;-66
2022/03/16 10:25:31;;;;;;;10.70;6.55;;;;;;;22.11;34.34;102599.78;4774516;28;21346;-65
2022/03/16 10:28:27;;;;;;;8.48;5.07;;;;;;;22.20;34.85;102601.50;4743677;28;20474;-70
2022/03/16 10:31:00;;;;;;;7.93;5.35;;;;;;;22.20;35.06;102607.63;4773230;28;21376;-70
2022/03/16 10:33:44;;;;;;;5.90;4.03;;;;;;;22.12;35.05;102609.38;4761335;28;21252;-69
2022/03/16 10:36:11;;;;;;;7.53;3.90;;;;;;;22.14;35.31;102600.28;4791902;28;20079;-71
2022/03/16 10:38:40;;;;;;;5.93;3.90;;;;;;;22.30;35.22;102602.25;4834553;28;20762;-68
2022/03/16 10:47:00;;;;;;;5.65;3.67;;;;;;;22.61;34.86;102598.16;4856096;28;20044;-65
2022/03/16 10:49:30;;;;;;;6.60;3.38;;;;;;;22.73;34.62;102589.94;4820459;28;21041;-68
2022/03/16 10:52:05;;;;;;;5.47;3.60;;;;;;;22.72;34.72;102577.66;4856831;28;21204;-67
2022/03/16 10:54:32;;;;;;;6.28;3.35;;;;;;;22.77;34.75;102592.13;4812639;28;21167;-67
2022/03/16 10:56:59;;;;;;;4.75;3.25;;;;;;;22.78;34.47;102590.28;4854788;28;20037;-67
2022/03/16 10:59:32;;;;;;;4.30;3.15;;;;;;;22.79;34.76;102581.34;4810340;28;20715;-67
2022/03/16 11:02:06;;;;;;;5.45;3.53;;;;;;;22.80;34.53;102586.53;4854686;28;20060;-68
2022/03/16 11:04:34;;;;;;;4.85;3.15;;;;;;;22.88;34.65;102583.09;4815142;28;20057;-68
2022/03/16 11:07:01;;;;;;;4.32;3.22;;;;;;;22.82;34.60;102589.88;4856037;28;20566;-68
2022/03/16 11:09:28;;;;;;;5.25;3.20;;;;;;;22.96;34.55;102590.25;4813025;28;20561;-68
2022/03/16 11:14:44;;;;;;;8.30;4.10;;;;;;;22.81;33.76;102593.50;4708287;28;20156;-68
2022/03/16 11:17:11;;;;;;;5.32;3.58;;;;;;;22.76;34.02;102584.31;4769237;28;20131;-69
2022/03/16 11:19:38;;;;;;;4.68;3.63;;;;;;;22.85;33.95;102584.25;4771509;28;20668;-69
2022/03/16 11:22:11;;;;;;;5.40;3.53;;;;;;;22.66;34.28;102546.44;4751140;28;21642;-68
2022/03/16 11:24:42;;;;;;;6.32;3.80;;;;;;;22.68;34.34;102550.59;4773474;28;20574;-69
2022/03/16 11:27:28;;;;;;;6.30;3.85;;;;;;;22.69;34.25;102549.59;4759286;28;20045;-68
2022/03/16 11:30:19;;;;;;;5.05;3.72;;;;;;;22.99;33.84;102566.91;4768208;28;20908;-68
2022/03/16 11:32:48;;;;;;;5.13;3.50;;;;;;;23.09;33.86;102564.94;4781655;28;20707;-67
2022/03/16 11:35:17;;;;;;;8.35;4.97;;;;;;;22.91;33.50;102566.84;4795730;28;20063;-70
2022/03/16 11:37:51;;;;;;;9.32;4.72;;;;;;;22.89;34.20;102553.72;4729995;28;22546;-72